sensor_id;sensor_type;location;lat;lon;timestamp;P1;durP1;ratioP1;P2;durP2;ratioP2
16689;SDS011;8458;52.220;9.884;2023-05-10T00:00:23;1.83;;;1.73;;
16689;SDS011;8458;52.220;9.884;2023-05-10T00:02:49;2.03;;;1.50;;
16689;SDS011;8458;52.220;9.884;2023-05-10T00:05:16;2.20;;;1.70;;
16689;SDS011;8458;52.220;9.884;2023-05-10T00:07:43;1.80;;;1.70;;
16689;SDS011;8458;52.220;9.884;2023-05-10T00:10:09;2.30;;;2.20;;
16689;SDS011;8458;52.220;9.884;2023-05-10T00:12:36;1.87;;;1.77;;
16689;SDS011;8458;52.220;9.884;2023-05-10T00:15:03;1.83;;;1.73;;
16689;SDS011;8458;52.220;9.884;2023-05-10T00:17:32;2.17;;;1.80;;
16689;SDS011;8458;52.220;9.884;2023-05-10T00:19:59;2.10;;;2.00;;
16689;SDS011;8458;52.220;9.884;2023-05-10T00:22:25;2.67;;;1.70;;
16689;SDS011;8458;52.220;9.884;2023-05-10T00:24:52;2.20;;;2.00;;
16689;SDS011;8458;52.220;9.884;2023-05-10T00:27:18;1.90;;;1.80;;
16689;SDS011;8458;52.220;9.884;2023-05-10T00:29:44;2.90;;;1.90;;
16689;SDS011;8458;52.220;9.884;2023-05-10T00:32:11;2.30;;;2.10;;
16689;SDS011;8458;52.220;9.884;2023-05-10T00:34:40;2.17;;;1.97;;
16689;SDS011;8458;52.220;9.884;2023-05-10T00:37:06;2.00;;;1.90;;
16689;SDS011;8458;52.220;9.884;2023-05-10T00:39:33;2.00;;;1.90;;
16689;SDS011;8458;52.220;9.884;2023-05-10T00:41:59;2.93;;;2.10;;
16689;SDS011;8458;52.220;9.884;2023-05-10T00:44:26;2.40;;;2.20;;
16689;SDS011;8458;52.220;9.884;2023-05-10T00:46:52;3.10;;;2.20;;
16689;SDS011;8458;52.220;9.884;2023-05-10T00:49:19;2.53;;;1.83;;
16689;SDS011;8458;52.220;9.884;2023-05-10T00:51:48;1.77;;;1.67;;
16689;SDS011;8458;52.220;9.884;2023-05-10T00:54:15;2.37;;;1.87;;
16689;SDS011;8458;52.220;9.884;2023-05-10T00:56:42;2.33;;;2.13;;
16689;SDS011;8458;52.220;9.884;2023-05-10T00:59:13;2.10;;;1.90;;
16689;SDS011;8458;52.220;9.884;2023-05-10T01:01:40;2.17;;;1.90;;
16689;SDS011;8458;52.220;9.884;2023-05-10T01:04:07;2.47;;;2.13;;
16689;SDS011;8458;52.220;9.884;2023-05-10T01:06:34;2.23;;;2.00;;
16689;SDS011;8458;52.220;9.884;2023-05-10T01:09:02;1.90;;;1.80;;
16689;SDS011;8458;52.220;9.884;2023-05-10T01:11:28;2.30;;;2.13;;
16689;SDS011;8458;52.220;9.884;2023-05-10T01:13:55;2.17;;;1.97;;
16689;SDS011;8458;52.220;9.884;2023-05-10T01:16:23;1.90;;;1.80;;
16689;SDS011;8458;52.220;9.884;2023-05-10T01:18:50;2.13;;;1.77;;
16689;SDS011;8458;52.220;9.884;2023-05-10T01:21:20;2.37;;;2.17;;
16689;SDS011;8458;52.220;9.884;2023-05-10T01:27:17;2.20;;;2.10;;
16689;SDS011;8458;52.220;9.884;2023-05-10T01:32:50;2.07;;;1.97;;
16689;SDS011;8458;52.220;9.884;2023-05-10T01:35:23;2.43;;;2.23;;
16689;SDS011;8458;52.220;9.884;2023-05-10T01:37:59;2.40;;;2.20;;
16689;SDS011;8458;52.220;9.884;2023-05-10T01:40:32;2.20;;;2.10;;
16689;SDS011;8458;52.220;9.884;2023-05-10T01:43:04;2.57;;;2.43;;
16689;SDS011;8458;52.220;9.884;2023-05-10T01:45:37;2.40;;;2.20;;
16689;SDS011;8458;52.220;9.884;2023-05-10T01:48:14;2.67;;;2.30;;
16689;SDS011;8458;52.220;9.884;2023-05-10T01:50:42;2.47;;;2.27;;
16689;SDS011;8458;52.220;9.884;2023-05-10T01:53:11;2.23;;;2.03;;
16689;SDS011;8458;52.220;9.884;2023-05-10T01:55:41;3.57;;;2.20;;
16689;SDS011;8458;52.220;9.884;2023-05-10T01:58:13;2.23;;;2.03;;
16689;SDS011;8458;52.220;9.884;2023-05-10T02:00:40;2.23;;;2.13;;
16689;SDS011;8458;52.220;9.884;2023-05-10T02:03:10;2.90;;;2.60;;
16689;SDS011;8458;52.220;9.884;2023-05-10T02:05:40;2.70;;;2.23;;
16689;SDS011;8458;52.220;9.884;2023-05-10T02:08:07;2.60;;;2.40;;
16689;SDS011;8458;52.220;9.884;2023-05-10T02:10:35;2.60;;;2.33;;
16689;SDS011;8458;52.220;9.884;2023-05-10T02:13:03;2.50;;;2.30;;
16689;SDS011;8458;52.220;9.884;2023-05-10T02:15:33;2.57;;;2.37;;
16689;SDS011;8458;52.220;9.884;2023-05-10T02:18:01;2.77;;;2.57;;
16689;SDS011;8458;52.220;9.884;2023-05-10T02:20:30;2.80;;;2.60;;
16689;SDS011;8458;52.220;9.884;2023-05-10T02:22:59;2.83;;;2.63;;
16689;SDS011;8458;52.220;9.884;2023-05-10T02:25:28;3.00;;;2.73;;
16689;SDS011;8458;52.220;9.884;2023-05-10T02:27:57;2.63;;;2.43;;
16689;SDS011;8458;52.220;9.884;2023-05-10T02:30:26;2.77;;;2.57;;
16689;SDS011;8458;52.220;9.884;2023-05-10T02:32:53;2.73;;;2.53;;
16689;SDS011;8458;52.220;9.884;2023-05-10T02:35:20;2.80;;;2.60;;
16689;SDS011;8458;52.220;9.884;2023-05-10T02:37:48;2.80;;;2.60;;
16689;SDS011;8458;52.220;9.884;2023-05-10T02:40:17;3.20;;;3.00;;
16689;SDS011;8458;52.220;9.884;2023-05-10T02:42:45;2.80;;;2.60;;
16689;SDS011;8458;52.220;9.884;2023-05-10T02:45:15;3.70;;;3.30;;
16689;SDS011;8458;52.220;9.884;2023-05-10T02:47:45;3.00;;;2.70;;
16689;SDS011;8458;52.220;9.884;2023-05-10T02:50:12;3.33;;;2.90;;
16689;SDS011;8458;52.220;9.884;2023-05-10T02:52:39;3.50;;;3.30;;
16689;SDS011;8458;52.220;9.884;2023-05-10T02:55:09;3.10;;;2.90;;
16689;SDS011;8458;52.220;9.884;2023-05-10T02:57:40;3.23;;;3.03;;
16689;SDS011;8458;52.220;9.884;2023-05-10T03:00:12;3.63;;;3.30;;
16689;SDS011;8458;52.220;9.884;2023-05-10T03:02:39;3.10;;;2.90;;
16689;SDS011;8458;52.220;9.884;2023-05-10T03:05:05;3.17;;;2.97;;
16689;SDS011;8458;52.220;9.884;2023-05-10T03:07:32;3.17;;;2.97;;
16689;SDS011;8458;52.220;9.884;2023-05-10T03:09:59;3.23;;;3.03;;
16689;SDS011;8458;52.220;9.884;2023-05-10T03:12:27;5.37;;;3.00;;
16689;SDS011;8458;52.220;9.884;2023-05-10T03:15:03;3.43;;;3.23;;
16689;SDS011;8458;52.220;9.884;2023-05-10T03:17:40;3.50;;;3.23;;
16689;SDS011;8458;52.220;9.884;2023-05-10T03:20:12;3.50;;;3.30;;
16689;SDS011;8458;52.220;9.884;2023-05-10T03:22:47;3.97;;;3.70;;
16689;SDS011;8458;52.220;9.884;2023-05-10T03:25:16;3.80;;;3.40;;
16689;SDS011;8458;52.220;9.884;2023-05-10T03:27:44;3.90;;;3.60;;
16689;SDS011;8458;52.220;9.884;2023-05-10T03:30:13;3.90;;;3.70;;
16689;SDS011;8458;52.220;9.884;2023-05-10T03:32:40;4.20;;;3.90;;
16689;SDS011;8458;52.220;9.884;2023-05-10T03:35:07;4.20;;;3.80;;
16689;SDS011;8458;52.220;9.884;2023-05-10T03:37:34;4.27;;;3.90;;
16689;SDS011;8458;52.220;9.884;2023-05-10T03:40:01;4.07;;;3.77;;
16689;SDS011;8458;52.220;9.884;2023-05-10T03:42:28;3.97;;;3.67;;
16689;SDS011;8458;52.220;9.884;2023-05-10T03:44:54;4.47;;;4.17;;
16689;SDS011;8458;52.220;9.884;2023-05-10T03:47:22;4.43;;;4.13;;
16689;SDS011;8458;52.220;9.884;2023-05-10T03:49:49;4.70;;;4.40;;
16689;SDS011;8458;52.220;9.884;2023-05-10T03:52:16;4.50;;;4.20;;
16689;SDS011;8458;52.220;9.884;2023-05-10T03:54:43;3.63;;;3.43;;
16689;SDS011;8458;52.220;9.884;2023-05-10T03:57:09;4.03;;;3.73;;
16689;SDS011;8458;52.220;9.884;2023-05-10T03:59:36;4.23;;;3.93;;
16689;SDS011;8458;52.220;9.884;2023-05-10T04:02:02;4.70;;;4.30;;
16689;SDS011;8458;52.220;9.884;2023-05-10T04:04:30;4.67;;;4.40;;
16689;SDS011;8458;52.220;9.884;2023-05-10T04:06:56;4.57;;;4.20;;
16689;SDS011;8458;52.220;9.884;2023-05-10T04:09:23;4.30;;;4.10;;
16689;SDS011;8458;52.220;9.884;2023-05-10T04:11:50;4.63;;;4.33;;
16689;SDS011;8458;52.220;9.884;2023-05-10T04:14:16;4.50;;;4.30;;
16689;SDS011;8458;52.220;9.884;2023-05-10T04:16:43;4.13;;;3.93;;
16689;SDS011;8458;52.220;9.884;2023-05-10T04:19:09;5.03;;;4.73;;
16689;SDS011;8458;52.220;9.884;2023-05-10T04:21:37;4.77;;;4.47;;
16689;SDS011;8458;52.220;9.884;2023-05-10T04:24:04;5.17;;;4.77;;
16689;SDS011;8458;52.220;9.884;2023-05-10T04:26:30;4.67;;;4.27;;
16689;SDS011;8458;52.220;9.884;2023-05-10T04:28:57;4.47;;;4.27;;
16689;SDS011;8458;52.220;9.884;2023-05-10T04:31:23;4.93;;;4.63;;
16689;SDS011;8458;52.220;9.884;2023-05-10T04:33:51;5.00;;;4.70;;
16689;SDS011;8458;52.220;9.884;2023-05-10T04:36:17;5.37;;;5.07;;
16689;SDS011;8458;52.220;9.884;2023-05-10T04:38:45;5.10;;;4.80;;
16689;SDS011;8458;52.220;9.884;2023-05-10T04:41:11;5.37;;;5.07;;
16689;SDS011;8458;52.220;9.884;2023-05-10T04:43:38;5.37;;;4.97;;
16689;SDS011;8458;52.220;9.884;2023-05-10T04:46:05;5.70;;;5.30;;
16689;SDS011;8458;52.220;9.884;2023-05-10T04:48:32;5.37;;;4.97;;
16689;SDS011;8458;52.220;9.884;2023-05-10T04:50:59;5.17;;;4.87;;
16689;SDS011;8458;52.220;9.884;2023-05-10T04:53:25;5.07;;;4.77;;
16689;SDS011;8458;52.220;9.884;2023-05-10T04:55:53;5.20;;;4.90;;
16689;SDS011;8458;52.220;9.884;2023-05-10T04:58:20;5.20;;;4.90;;
16689;SDS011;8458;52.220;9.884;2023-05-10T05:00:46;5.37;;;4.90;;
16689;SDS011;8458;52.220;9.884;2023-05-10T05:03:12;5.87;;;5.47;;
16689;SDS011;8458;52.220;9.884;2023-05-10T05:05:39;5.90;;;5.60;;
16689;SDS011;8458;52.220;9.884;2023-05-10T05:08:06;5.83;;;5.43;;
16689;SDS011;8458;52.220;9.884;2023-05-10T05:10:32;6.00;;;5.60;;
16689;SDS011;8458;52.220;9.884;2023-05-10T05:13:00;6.03;;;5.57;;
16689;SDS011;8458;52.220;9.884;2023-05-10T05:15:27;6.17;;;5.87;;
16689;SDS011;8458;52.220;9.884;2023-05-10T05:17:53;6.10;;;5.70;;
16689;SDS011;8458;52.220;9.884;2023-05-10T05:20:20;6.10;;;5.70;;
16689;SDS011;8458;52.220;9.884;2023-05-10T05:22:46;5.30;;;5.00;;
16689;SDS011;8458;52.220;9.884;2023-05-10T05:25:12;5.27;;;4.97;;
16689;SDS011;8458;52.220;9.884;2023-05-10T05:27:40;4.60;;;4.40;;
16689;SDS011;8458;52.220;9.884;2023-05-10T05:30:08;5.00;;;4.70;;
16689;SDS011;8458;52.220;9.884;2023-05-10T05:32:35;4.07;;;3.87;;
16689;SDS011;8458;52.220;9.884;2023-05-10T05:35:02;4.43;;;4.13;;
16689;SDS011;8458;52.220;9.884;2023-05-10T05:37:28;4.13;;;3.93;;
16689;SDS011;8458;52.220;9.884;2023-05-10T05:39:55;4.43;;;4.13;;
16689;SDS011;8458;52.220;9.884;2023-05-10T05:42:21;4.40;;;4.20;;
16689;SDS011;8458;52.220;9.884;2023-05-10T05:44:47;4.73;;;4.43;;
16689;SDS011;8458;52.220;9.884;2023-05-10T05:47:15;4.57;;;4.30;;
16689;SDS011;8458;52.220;9.884;2023-05-10T05:49:42;4.27;;;3.97;;
16689;SDS011;8458;52.220;9.884;2023-05-10T05:52:10;4.20;;;4.00;;
16689;SDS011;8458;52.220;9.884;2023-05-10T05:54:37;4.47;;;4.27;;
16689;SDS011;8458;52.220;9.884;2023-05-10T05:57:03;4.60;;;4.30;;
16689;SDS011;8458;52.220;9.884;2023-05-10T05:59:30;4.90;;;4.50;;
16689;SDS011;8458;52.220;9.884;2023-05-10T06:01:56;4.83;;;4.53;;
16689;SDS011;8458;52.220;9.884;2023-05-10T06:04:25;4.80;;;4.50;;
16689;SDS011;8458;52.220;9.884;2023-05-10T06:06:51;4.47;;;4.20;;
16689;SDS011;8458;52.220;9.884;2023-05-10T06:09:17;4.10;;;3.80;;
16689;SDS011;8458;52.220;9.884;2023-05-10T06:11:44;4.60;;;4.30;;
16689;SDS011;8458;52.220;9.884;2023-05-10T06:14:11;4.40;;;4.10;;
16689;SDS011;8458;52.220;9.884;2023-05-10T06:16:38;4.37;;;4.07;;
16689;SDS011;8458;52.220;9.884;2023-05-10T06:19:04;3.33;;;3.13;;
16689;SDS011;8458;52.220;9.884;2023-05-10T06:21:32;4.30;;;4.00;;
16689;SDS011;8458;52.220;9.884;2023-05-10T06:23:59;3.87;;;3.67;;
16689;SDS011;8458;52.220;9.884;2023-05-10T06:26:25;4.00;;;3.70;;
16689;SDS011;8458;52.220;9.884;2023-05-10T06:28:51;4.03;;;3.73;;
16689;SDS011;8458;52.220;9.884;2023-05-10T06:31:18;4.30;;;4.10;;
16689;SDS011;8458;52.220;9.884;2023-05-10T06:33:44;4.30;;;4.00;;
16689;SDS011;8458;52.220;9.884;2023-05-10T06:36:11;4.33;;;4.07;;
16689;SDS011;8458;52.220;9.884;2023-05-10T06:38:39;4.60;;;4.30;;
16689;SDS011;8458;52.220;9.884;2023-05-10T06:41:06;4.50;;;4.20;;
16689;SDS011;8458;52.220;9.884;2023-05-10T06:43:33;4.10;;;3.83;;
16689;SDS011;8458;52.220;9.884;2023-05-10T06:45:59;4.03;;;3.73;;
16689;SDS011;8458;52.220;9.884;2023-05-10T06:48:26;4.40;;;4.13;;
16689;SDS011;8458;52.220;9.884;2023-05-10T06:50:53;3.70;;;3.50;;
16689;SDS011;8458;52.220;9.884;2023-05-10T06:53:19;4.20;;;3.97;;
16689;SDS011;8458;52.220;9.884;2023-05-10T06:55:47;4.50;;;4.20;;
16689;SDS011;8458;52.220;9.884;2023-05-10T06:58:15;4.57;;;4.27;;
16689;SDS011;8458;52.220;9.884;2023-05-10T07:00:41;4.30;;;4.10;;
16689;SDS011;8458;52.220;9.884;2023-05-10T07:03:08;4.40;;;4.10;;
16689;SDS011;8458;52.220;9.884;2023-05-10T07:05:35;4.20;;;4.00;;
16689;SDS011;8458;52.220;9.884;2023-05-10T07:08:01;4.50;;;4.20;;
16689;SDS011;8458;52.220;9.884;2023-05-10T07:10:28;3.80;;;3.60;;
16689;SDS011;8458;52.220;9.884;2023-05-10T07:12:56;5.90;;;4.17;;
16689;SDS011;8458;52.220;9.884;2023-05-10T07:15:22;3.80;;;3.60;;
16689;SDS011;8458;52.220;9.884;2023-05-10T07:17:49;3.63;;;3.43;;
16689;SDS011;8458;52.220;9.884;2023-05-10T07:20:16;3.70;;;3.47;;
16689;SDS011;8458;52.220;9.884;2023-05-10T07:22:43;3.47;;;3.27;;
16689;SDS011;8458;52.220;9.884;2023-05-10T07:25:09;3.83;;;3.63;;
16689;SDS011;8458;52.220;9.884;2023-05-10T07:27:36;3.40;;;3.20;;
16689;SDS011;8458;52.220;9.884;2023-05-10T07:30:04;3.47;;;3.33;;
16689;SDS011;8458;52.220;9.884;2023-05-10T07:32:32;2.67;;;2.47;;
16689;SDS011;8458;52.220;9.884;2023-05-10T07:34:58;4.10;;;3.40;;
16689;SDS011;8458;52.220;9.884;2023-05-10T07:37:25;3.17;;;3.00;;
16689;SDS011;8458;52.220;9.884;2023-05-10T07:39:51;3.20;;;3.10;;
16689;SDS011;8458;52.220;9.884;2023-05-10T07:42:18;3.03;;;2.90;;
16689;SDS011;8458;52.220;9.884;2023-05-10T07:44:44;2.73;;;2.63;;
16689;SDS011;8458;52.220;9.884;2023-05-10T07:47:12;2.33;;;2.13;;
16689;SDS011;8458;52.220;9.884;2023-05-10T07:49:39;2.80;;;2.70;;
16689;SDS011;8458;52.220;9.884;2023-05-10T07:52:05;2.57;;;2.47;;
16689;SDS011;8458;52.220;9.884;2023-05-10T07:54:32;2.60;;;2.50;;
16689;SDS011;8458;52.220;9.884;2023-05-10T07:56:59;2.70;;;2.60;;
16689;SDS011;8458;52.220;9.884;2023-05-10T07:59:25;3.10;;;2.90;;
16689;SDS011;8458;52.220;9.884;2023-05-10T08:01:52;3.07;;;2.97;;
16689;SDS011;8458;52.220;9.884;2023-05-10T08:04:20;2.70;;;2.60;;
16689;SDS011;8458;52.220;9.884;2023-05-10T08:06:47;2.63;;;2.53;;
16689;SDS011;8458;52.220;9.884;2023-05-10T08:09:13;2.33;;;2.23;;
16689;SDS011;8458;52.220;9.884;2023-05-10T08:11:40;2.77;;;2.60;;
16689;SDS011;8458;52.220;9.884;2023-05-10T08:14:06;2.80;;;2.70;;
16689;SDS011;8458;52.220;9.884;2023-05-10T08:16:32;2.37;;;2.27;;
16689;SDS011;8458;52.220;9.884;2023-05-10T08:18:59;2.50;;;2.40;;
16689;SDS011;8458;52.220;9.884;2023-05-10T08:21:27;2.50;;;2.30;;
16689;SDS011;8458;52.220;9.884;2023-05-10T08:23:53;1.90;;;1.80;;
16689;SDS011;8458;52.220;9.884;2023-05-10T08:26:20;2.20;;;2.03;;
16689;SDS011;8458;52.220;9.884;2023-05-10T08:28:46;1.90;;;1.80;;
16689;SDS011;8458;52.220;9.884;2023-05-10T08:31:13;2.00;;;1.90;;
16689;SDS011;8458;52.220;9.884;2023-05-10T08:33:41;2.30;;;2.20;;
16689;SDS011;8458;52.220;9.884;2023-05-10T08:36:08;2.27;;;2.17;;
16689;SDS011;8458;52.220;9.884;2023-05-10T08:38:36;2.37;;;2.27;;
16689;SDS011;8458;52.220;9.884;2023-05-10T08:41:03;2.20;;;2.10;;
16689;SDS011;8458;52.220;9.884;2023-05-10T08:43:31;2.00;;;1.87;;
16689;SDS011;8458;52.220;9.884;2023-05-10T08:45:59;2.10;;;2.00;;
16689;SDS011;8458;52.220;9.884;2023-05-10T08:48:26;2.13;;;2.03;;
16689;SDS011;8458;52.220;9.884;2023-05-10T08:50:55;2.20;;;2.10;;
16689;SDS011;8458;52.220;9.884;2023-05-10T08:53:25;1.93;;;1.83;;
16689;SDS011;8458;52.220;9.884;2023-05-10T08:55:54;1.90;;;1.80;;
16689;SDS011;8458;52.220;9.884;2023-05-10T08:58:21;1.67;;;1.57;;
16689;SDS011;8458;52.220;9.884;2023-05-10T09:00:48;1.73;;;1.63;;
16689;SDS011;8458;52.220;9.884;2023-05-10T09:03:16;1.50;;;1.40;;
16689;SDS011;8458;52.220;9.884;2023-05-10T09:05:43;1.00;;;0.97;;
16689;SDS011;8458;52.220;9.884;2023-05-10T09:08:10;0.67;;;0.60;;
16689;SDS011;8458;52.220;9.884;2023-05-10T09:10:38;0.37;;;0.30;;
16689;SDS011;8458;52.220;9.884;2023-05-10T09:13:06;0.53;;;0.30;;
16689;SDS011;8458;52.220;9.884;2023-05-10T09:15:35;0.77;;;0.30;;
16689;SDS011;8458;52.220;9.884;2023-05-10T09:18:01;0.30;;;0.20;;
16689;SDS011;8458;52.220;9.884;2023-05-10T09:20:28;0.20;;;0.20;;
16689;SDS011;8458;52.220;9.884;2023-05-10T09:22:54;0.30;;;0.20;;
16689;SDS011;8458;52.220;9.884;2023-05-10T09:25:21;0.20;;;0.20;;
16689;SDS011;8458;52.220;9.884;2023-05-10T09:27:48;0.20;;;0.20;;
16689;SDS011;8458;52.220;9.884;2023-05-10T09:30:16;0.10;;;0.10;;
16689;SDS011;8458;52.220;9.884;2023-05-10T09:32:48;0.13;;;0.13;;
16689;SDS011;8458;52.220;9.884;2023-05-10T09:35:16;0.60;;;0.20;;
16689;SDS011;8458;52.220;9.884;2023-05-10T09:37:45;0.20;;;0.20;;
16689;SDS011;8458;52.220;9.884;2023-05-10T09:40:14;0.20;;;0.20;;
16689;SDS011;8458;52.220;9.884;2023-05-10T09:42:41;0.37;;;0.33;;
16689;SDS011;8458;52.220;9.884;2023-05-10T09:45:17;0.40;;;0.30;;
16689;SDS011;8458;52.220;9.884;2023-05-10T09:47:44;0.40;;;0.30;;
16689;SDS011;8458;52.220;9.884;2023-05-10T09:50:11;0.83;;;0.40;;
16689;SDS011;8458;52.220;9.884;2023-05-10T09:52:45;0.30;;;0.30;;
16689;SDS011;8458;52.220;9.884;2023-05-10T09:55:13;0.33;;;0.33;;
16689;SDS011;8458;52.220;9.884;2023-05-10T09:57:40;0.77;;;0.33;;
16689;SDS011;8458;52.220;9.884;2023-05-10T10:00:07;0.60;;;0.60;;
16689;SDS011;8458;52.220;9.884;2023-05-10T10:02:36;0.50;;;0.30;;
16689;SDS011;8458;52.220;9.884;2023-05-10T10:05:03;0.73;;;0.30;;
16689;SDS011;8458;52.220;9.884;2023-05-10T10:07:30;0.47;;;0.40;;
16689;SDS011;8458;52.220;9.884;2023-05-10T10:09:57;0.70;;;0.40;;
16689;SDS011;8458;52.220;9.884;2023-05-10T10:12:25;0.47;;;0.40;;
16689;SDS011;8458;52.220;9.884;2023-05-10T10:14:51;1.17;;;0.30;;
16689;SDS011;8458;52.220;9.884;2023-05-10T10:17:19;0.20;;;0.20;;
16689;SDS011;8458;52.220;9.884;2023-05-10T10:19:47;0.50;;;0.50;;
16689;SDS011;8458;52.220;9.884;2023-05-10T10:22:15;0.60;;;0.60;;
16689;SDS011;8458;52.220;9.884;2023-05-10T10:24:42;0.60;;;0.60;;
16689;SDS011;8458;52.220;9.884;2023-05-10T10:27:12;0.57;;;0.50;;
16689;SDS011;8458;52.220;9.884;2023-05-10T10:29:47;0.50;;;0.50;;
16689;SDS011;8458;52.220;9.884;2023-05-10T10:32:25;0.60;;;0.60;;
16689;SDS011;8458;52.220;9.884;2023-05-10T10:34:57;0.60;;;0.60;;
16689;SDS011;8458;52.220;9.884;2023-05-10T10:40:22;1.50;;;0.70;;
16689;SDS011;8458;52.220;9.884;2023-05-10T10:42:50;0.50;;;0.50;;
16689;SDS011;8458;52.220;9.884;2023-05-10T10:45:17;1.23;;;0.80;;
16689;SDS011;8458;52.220;9.884;2023-05-10T10:47:43;1.47;;;0.80;;
16689;SDS011;8458;52.220;9.884;2023-05-10T10:50:12;0.80;;;0.80;;
16689;SDS011;8458;52.220;9.884;2023-05-10T10:52:39;0.90;;;0.83;;
16689;SDS011;8458;52.220;9.884;2023-05-10T10:55:06;1.20;;;0.90;;
16689;SDS011;8458;52.220;9.884;2023-05-10T10:57:42;1.10;;;1.00;;
16689;SDS011;8458;52.220;9.884;2023-05-10T11:00:18;1.83;;;1.20;;
16689;SDS011;8458;52.220;9.884;2023-05-10T11:03:03;1.47;;;1.30;;
16689;SDS011;8458;52.220;9.884;2023-05-10T11:05:37;1.67;;;1.40;;
16689;SDS011;8458;52.220;9.884;2023-05-10T11:08:12;1.70;;;1.30;;
16689;SDS011;8458;52.220;9.884;2023-05-10T11:10:53;1.47;;;1.37;;
16689;SDS011;8458;52.220;9.884;2023-05-10T11:13:30;1.53;;;1.43;;
16689;SDS011;8458;52.220;9.884;2023-05-10T11:15:58;1.50;;;1.20;;
16689;SDS011;8458;52.220;9.884;2023-05-10T11:18:26;1.80;;;1.43;;
16689;SDS011;8458;52.220;9.884;2023-05-10T11:20:56;3.23;;;1.07;;
16689;SDS011;8458;52.220;9.884;2023-05-10T11:23:29;1.40;;;1.30;;
16689;SDS011;8458;52.220;9.884;2023-05-10T11:25:56;1.47;;;1.37;;
16689;SDS011;8458;52.220;9.884;2023-05-10T11:28:25;1.60;;;1.50;;
16689;SDS011;8458;52.220;9.884;2023-05-10T11:30:52;2.10;;;1.60;;
16689;SDS011;8458;52.220;9.884;2023-05-10T11:33:20;1.97;;;1.80;;
16689;SDS011;8458;52.220;9.884;2023-05-10T11:35:46;2.57;;;1.57;;
16689;SDS011;8458;52.220;9.884;2023-05-10T11:38:14;2.43;;;2.07;;
16689;SDS011;8458;52.220;9.884;2023-05-10T11:40:41;1.77;;;1.67;;
16689;SDS011;8458;52.220;9.884;2023-05-10T11:43:08;2.10;;;2.00;;
16689;SDS011;8458;52.220;9.884;2023-05-10T11:45:36;1.87;;;1.77;;
16689;SDS011;8458;52.220;9.884;2023-05-10T11:48:02;2.10;;;1.73;;
16689;SDS011;8458;52.220;9.884;2023-05-10T11:50:29;1.70;;;1.60;;
16689;SDS011;8458;52.220;9.884;2023-05-10T11:52:56;1.90;;;1.77;;
16689;SDS011;8458;52.220;9.884;2023-05-10T11:55:24;2.10;;;1.90;;
16689;SDS011;8458;52.220;9.884;2023-05-10T11:57:51;2.23;;;1.70;;
16689;SDS011;8458;52.220;9.884;2023-05-10T12:00:18;2.07;;;1.70;;
16689;SDS011;8458;52.220;9.884;2023-05-10T12:02:45;1.60;;;1.50;;
16689;SDS011;8458;52.220;9.884;2023-05-10T12:05:12;2.03;;;1.50;;
16689;SDS011;8458;52.220;9.884;2023-05-10T12:07:39;1.67;;;1.57;;
16689;SDS011;8458;52.220;9.884;2023-05-10T12:10:06;2.00;;;1.90;;
16689;SDS011;8458;52.220;9.884;2023-05-10T12:12:38;2.80;;;1.70;;
16689;SDS011;8458;52.220;9.884;2023-05-10T12:15:07;1.90;;;1.70;;
16689;SDS011;8458;52.220;9.884;2023-05-10T12:17:37;1.60;;;1.50;;
16689;SDS011;8458;52.220;9.884;2023-05-10T12:20:13;2.10;;;1.73;;
16689;SDS011;8458;52.220;9.884;2023-05-10T12:22:40;1.80;;;1.50;;
16689;SDS011;8458;52.220;9.884;2023-05-10T12:25:08;1.80;;;1.70;;
16689;SDS011;8458;52.220;9.884;2023-05-10T12:27:35;1.93;;;1.50;;
16689;SDS011;8458;52.220;9.884;2023-05-10T12:30:03;1.80;;;1.70;;
16689;SDS011;8458;52.220;9.884;2023-05-10T12:32:37;2.10;;;2.00;;
16689;SDS011;8458;52.220;9.884;2023-05-10T12:35:04;2.57;;;2.37;;
16689;SDS011;8458;52.220;9.884;2023-05-10T12:37:32;3.40;;;2.80;;
16689;SDS011;8458;52.220;9.884;2023-05-10T12:40:00;2.77;;;2.57;;
16689;SDS011;8458;52.220;9.884;2023-05-10T12:42:29;3.30;;;3.00;;
16689;SDS011;8458;52.220;9.884;2023-05-10T12:44:56;3.27;;;3.07;;
16689;SDS011;8458;52.220;9.884;2023-05-10T12:47:24;3.00;;;2.80;;
16689;SDS011;8458;52.220;9.884;2023-05-10T12:49:50;3.00;;;2.50;;
16689;SDS011;8458;52.220;9.884;2023-05-10T12:52:17;3.20;;;3.00;;
16689;SDS011;8458;52.220;9.884;2023-05-10T12:54:43;3.00;;;2.77;;
16689;SDS011;8458;52.220;9.884;2023-05-10T12:57:10;2.80;;;2.60;;
16689;SDS011;8458;52.220;9.884;2023-05-10T12:59:36;2.50;;;2.30;;
16689;SDS011;8458;52.220;9.884;2023-05-10T13:02:03;2.53;;;2.37;;
16689;SDS011;8458;52.220;9.884;2023-05-10T13:04:30;1.93;;;1.73;;
16689;SDS011;8458;52.220;9.884;2023-05-10T13:06:57;2.47;;;2.27;;
16689;SDS011;8458;52.220;9.884;2023-05-10T13:09:23;2.20;;;1.53;;
16689;SDS011;8458;52.220;9.884;2023-05-10T13:11:51;1.13;;;1.03;;
16689;SDS011;8458;52.220;9.884;2023-05-10T13:14:18;1.20;;;1.20;;
16689;SDS011;8458;52.220;9.884;2023-05-10T13:16:45;1.50;;;1.40;;
16689;SDS011;8458;52.220;9.884;2023-05-10T13:19:12;2.57;;;1.73;;
16689;SDS011;8458;52.220;9.884;2023-05-10T13:21:40;1.60;;;1.50;;
16689;SDS011;8458;52.220;9.884;2023-05-10T13:24:07;1.73;;;1.27;;
16689;SDS011;8458;52.220;9.884;2023-05-10T13:26:33;1.30;;;1.30;;
16689;SDS011;8458;52.220;9.884;2023-05-10T13:29:01;1.93;;;1.40;;
16689;SDS011;8458;52.220;9.884;2023-05-10T13:31:27;1.93;;;1.60;;
16689;SDS011;8458;52.220;9.884;2023-05-10T13:33:54;2.00;;;1.80;;
16689;SDS011;8458;52.220;9.884;2023-05-10T13:36:21;2.10;;;2.00;;
16689;SDS011;8458;52.220;9.884;2023-05-10T13:38:49;2.23;;;1.50;;
16689;SDS011;8458;52.220;9.884;2023-05-10T13:41:16;1.50;;;1.40;;
16689;SDS011;8458;52.220;9.884;2023-05-10T13:43:42;1.47;;;1.37;;
16689;SDS011;8458;52.220;9.884;2023-05-10T13:46:09;1.70;;;1.40;;
16689;SDS011;8458;52.220;9.884;2023-05-10T13:48:35;1.27;;;1.20;;
16689;SDS011;8458;52.220;9.884;2023-05-10T13:51:02;0.87;;;0.80;;
16689;SDS011;8458;52.220;9.884;2023-05-10T13:53:29;0.80;;;0.80;;
16689;SDS011;8458;52.220;9.884;2023-05-10T13:55:57;1.00;;;0.80;;
16689;SDS011;8458;52.220;9.884;2023-05-10T13:58:23;1.30;;;1.00;;
16689;SDS011;8458;52.220;9.884;2023-05-10T14:00:50;0.90;;;0.90;;
16689;SDS011;8458;52.220;9.884;2023-05-10T14:03:16;1.40;;;0.90;;
16689;SDS011;8458;52.220;9.884;2023-05-10T14:05:43;1.47;;;1.20;;
16689;SDS011;8458;52.220;9.884;2023-05-10T14:08:10;1.20;;;0.97;;
16689;SDS011;8458;52.220;9.884;2023-05-10T14:10:38;1.20;;;1.10;;
16689;SDS011;8458;52.220;9.884;2023-05-10T14:13:05;1.60;;;1.17;;
16689;SDS011;8458;52.220;9.884;2023-05-10T14:15:32;1.33;;;1.17;;
16689;SDS011;8458;52.220;9.884;2023-05-10T14:17:59;1.73;;;1.40;;
16689;SDS011;8458;52.220;9.884;2023-05-10T14:20:25;1.30;;;1.20;;
16689;SDS011;8458;52.220;9.884;2023-05-10T14:22:52;1.20;;;1.13;;
16689;SDS011;8458;52.220;9.884;2023-05-10T14:25:18;1.10;;;1.00;;
16689;SDS011;8458;52.220;9.884;2023-05-10T14:27:46;1.20;;;1.10;;
16689;SDS011;8458;52.220;9.884;2023-05-10T14:30:14;0.80;;;0.80;;
16689;SDS011;8458;52.220;9.884;2023-05-10T14:32:41;1.17;;;1.10;;
16689;SDS011;8458;52.220;9.884;2023-05-10T14:35:07;1.37;;;1.27;;
16689;SDS011;8458;52.220;9.884;2023-05-10T14:37:34;1.10;;;1.00;;
16689;SDS011;8458;52.220;9.884;2023-05-10T14:40:00;1.30;;;1.20;;
16689;SDS011;8458;52.220;9.884;2023-05-10T14:42:29;1.87;;;1.20;;
16689;SDS011;8458;52.220;9.884;2023-05-10T14:44:56;1.47;;;1.20;;
16689;SDS011;8458;52.220;9.884;2023-05-10T14:47:24;1.23;;;1.20;;
16689;SDS011;8458;52.220;9.884;2023-05-10T14:49:50;1.10;;;1.00;;
16689;SDS011;8458;52.220;9.884;2023-05-10T14:52:16;0.90;;;0.90;;
16689;SDS011;8458;52.220;9.884;2023-05-10T14:54:43;1.53;;;1.10;;
16689;SDS011;8458;52.220;9.884;2023-05-10T14:57:10;1.63;;;1.10;;
16689;SDS011;8458;52.220;9.884;2023-05-10T14:59:36;1.40;;;1.30;;
16689;SDS011;8458;52.220;9.884;2023-05-10T15:02:02;1.20;;;1.10;;
16689;SDS011;8458;52.220;9.884;2023-05-10T15:04:30;1.33;;;1.20;;
16689;SDS011;8458;52.220;9.884;2023-05-10T15:06:57;1.03;;;1.00;;
16689;SDS011;8458;52.220;9.884;2023-05-10T15:09:24;1.27;;;1.17;;
16689;SDS011;8458;52.220;9.884;2023-05-10T15:11:51;1.40;;;1.00;;